createdAt,value
2023-04-04T00:01:17.274Z,3.65
2023-04-04T00:03:46.025Z,3.65
2023-04-04T00:06:15.908Z,3.67
2023-04-04T00:08:44.303Z,3.67
2023-04-04T00:11:13.017Z,3.65
2023-04-04T00:13:41.536Z,3.62
2023-04-04T00:16:13.756Z,3.61
2023-04-04T00:18:42.166Z,3.63
2023-04-04T00:21:20.552Z,3.63
2023-04-04T00:23:48.866Z,3.63
2023-04-04T00:26:17.588Z,3.60
2023-04-04T00:28:46.189Z,3.61
2023-04-04T00:31:14.702Z,3.59
2023-04-04T00:33:43.137Z,3.59
2023-04-04T00:36:11.682Z,3.54
2023-04-04T00:38:41.481Z,3.47
2023-04-04T00:41:09.960Z,3.46
2023-04-04T00:43:39.639Z,3.41
2023-04-04T00:46:09.574Z,3.37
2023-04-04T00:48:39.477Z,3.35
2023-04-04T00:51:14.795Z,3.35
2023-04-04T00:53:47.441Z,3.33
2023-04-04T00:56:16.398Z,3.28
2023-04-04T00:58:45.623Z,3.27
2023-04-04T01:01:14.119Z,3.26
2023-04-04T01:03:42.833Z,3.24
2023-04-04T01:06:11.302Z,3.23
2023-04-04T01:08:40.712Z,3.19
2023-04-04T01:11:11.446Z,3.17
2023-04-04T01:13:39.934Z,3.15
2023-04-04T01:16:08.840Z,3.11
2023-04-04T01:18:38.452Z,3.10
2023-04-04T01:21:11.300Z,3.05
2023-04-04T01:23:50.551Z,3.02
2023-04-04T01:26:23.650Z,3.02
2023-04-04T01:28:52.081Z,3.00
2023-04-04T01:31:24.110Z,2.96
2023-04-04T01:33:58.677Z,2.93
2023-04-04T01:36:33.191Z,2.91
2023-04-04T01:39:16.760Z,2.87
2023-04-04T01:41:49.504Z,2.85
2023-04-04T01:44:19.245Z,2.82
2023-04-04T01:46:47.724Z,2.81
2023-04-04T01:49:16.529Z,2.79
2023-04-04T01:51:46.417Z,2.80
2023-04-04T01:54:16.898Z,2.79
2023-04-04T01:56:46.672Z,2.78
2023-04-04T01:59:15.098Z,2.78
2023-04-04T02:01:43.636Z,2.75
2023-04-04T02:04:12.674Z,2.73
2023-04-04T02:06:41.480Z,2.68
2023-04-04T02:09:09.898Z,2.64
2023-04-04T02:11:39.094Z,2.63
2023-04-04T02:14:09.056Z,2.61
2023-04-04T02:16:44.015Z,2.61
2023-04-04T02:19:13.071Z,2.60
2023-04-04T02:21:41.403Z,2.59
2023-04-04T02:24:10.106Z,2.56
2023-04-04T02:26:38.987Z,2.54
2023-04-04T02:29:09.331Z,2.52
2023-04-04T02:31:46.978Z,2.45
2023-04-04T02:34:15.554Z,2.44
2023-04-04T02:36:43.904Z,2.39
2023-04-04T02:39:12.384Z,2.40
2023-04-04T02:41:41.598Z,2.40
2023-04-04T02:44:11.968Z,2.39
2023-04-04T02:46:40.408Z,2.40
2023-04-04T02:49:09.026Z,2.39
2023-04-04T02:51:37.556Z,2.39
2023-04-04T02:54:07.689Z,2.39
2023-04-04T02:56:38.177Z,2.34
2023-04-04T02:59:07.954Z,2.29
2023-04-04T03:01:37.839Z,2.31
2023-04-04T03:04:07.763Z,2.32
2023-04-04T03:06:36.178Z,2.35
2023-04-04T03:09:05.085Z,2.35
2023-04-04T03:11:33.501Z,2.30
2023-04-04T03:14:01.897Z,2.30
2023-04-04T03:16:30.731Z,2.31
2023-04-04T03:19:00.570Z,2.30
2023-04-04T03:21:28.913Z,2.22
2023-04-04T03:24:03.382Z,2.20
2023-04-04T03:26:31.778Z,2.04
2023-04-04T03:29:00.157Z,2.00
2023-04-04T03:31:28.561Z,1.91
2023-04-04T03:33:57.118Z,1.86
2023-04-04T03:36:33.945Z,1.86
2023-04-04T03:39:02.261Z,1.84
2023-04-04T03:41:30.666Z,1.85
2023-04-04T03:43:59.056Z,1.83
2023-04-04T03:46:35.880Z,1.66
2023-04-04T03:49:04.565Z,1.61
2023-04-04T03:51:34.299Z,1.61
2023-04-04T03:54:03.100Z,1.61
2023-04-04T03:56:32.574Z,1.59
2023-04-04T03:59:01.262Z,1.49
2023-04-04T04:01:29.618Z,1.41
2023-04-04T04:03:58.123Z,1.40
2023-04-04T04:06:27.048Z,1.39
2023-04-04T04:08:58.394Z,1.40
2023-04-04T04:11:26.757Z,1.34
2023-04-04T04:14:01.987Z,1.36
2023-04-04T04:16:30.824Z,1.28
2023-04-04T04:18:59.400Z,1.20
2023-04-04T04:21:27.769Z,1.16
2023-04-04T04:23:57.455Z,1.16
2023-04-04T04:26:26.230Z,1.06
2023-04-04T04:28:54.881Z,1.03
2023-04-04T04:31:23.224Z,1.06
2023-04-04T04:33:51.752Z,1.02
2023-04-04T04:36:20.689Z,0.91
2023-04-04T04:38:49.263Z,0.82
2023-04-04T04:41:18.984Z,0.72
2023-04-04T04:43:47.305Z,0.77
2023-04-04T04:46:15.890Z,0.74
2023-04-04T04:48:44.236Z,0.64
2023-04-04T04:51:13.997Z,0.57
2023-04-04T04:53:42.402Z,0.47
2023-04-04T04:56:10.726Z,0.46
2023-04-04T04:58:40.798Z,0.56
2023-04-04T05:01:09.275Z,0.63
2023-04-04T05:03:37.799Z,0.70
2023-04-04T05:06:06.873Z,0.80
2023-04-04T05:08:35.264Z,0.85
2023-04-04T05:11:05.273Z,0.81
2023-04-04T05:13:34.815Z,0.64
2023-04-04T05:16:04.843Z,0.50
2023-04-04T05:18:33.289Z,0.39
2023-04-04T05:21:01.695Z,0.37
2023-04-04T05:23:30.244Z,0.43
2023-04-04T05:25:58.624Z,0.53
2023-04-04T05:28:27.030Z,0.65
2023-04-04T05:30:56.570Z,0.65
2023-04-04T05:33:27.118Z,0.62
2023-04-04T05:36:01.774Z,0.52
2023-04-04T05:38:31.091Z,0.65
2023-04-04T05:40:59.406Z,0.85
2023-04-04T05:43:27.892Z,0.90
2023-04-04T05:45:56.553Z,0.98
2023-04-04T05:48:25.051Z,1.05
2023-04-04T05:50:54.800Z,1.12
2023-04-04T05:53:23.548Z,1.23
2023-04-04T05:55:53.606Z,1.34
2023-04-04T05:58:22.285Z,1.43
2023-04-04T06:00:50.870Z,1.49
2023-04-04T06:03:21.659Z,1.56
2023-04-04T06:05:52.770Z,1.62
2023-04-04T06:08:22.789Z,1.67
2023-04-04T06:10:51.244Z,1.75
2023-04-04T06:13:19.899Z,1.83
2023-04-04T06:15:48.291Z,1.86
2023-04-04T06:18:17.468Z,1.92
2023-04-04T06:20:46.416Z,1.99
2023-04-04T06:23:14.790Z,2.04
2023-04-04T06:25:44.612Z,2.09
2023-04-04T06:28:15.975Z,2.14
2023-04-04T06:30:45.281Z,2.22
2023-04-04T06:33:13.688Z,2.31
2023-04-04T06:35:42.244Z,2.40
2023-04-04T06:38:11.610Z,2.47
2023-04-04T06:40:40.287Z,2.51
2023-04-04T06:43:10.281Z,2.57
2023-04-04T06:45:38.745Z,2.65
2023-04-04T06:48:07.571Z,2.71
2023-04-04T06:50:36.643Z,2.79
2023-04-04T06:53:06.613Z,2.82
2023-04-04T06:55:35.905Z,2.86
2023-04-04T06:58:04.301Z,2.93
2023-04-04T07:00:34.136Z,3.04
2023-04-04T07:03:02.882Z,3.12
2023-04-04T07:05:32.284Z,3.18
2023-04-04T07:08:00.740Z,3.25
2023-04-04T07:10:29.279Z,3.33
2023-04-04T07:12:57.936Z,3.45
2023-04-04T07:15:26.381Z,3.57
2023-04-04T07:18:00.222Z,3.67
2023-04-04T07:20:29.162Z,3.72
2023-04-04T07:22:57.540Z,3.73
2023-04-04T07:25:26.128Z,3.78
2023-04-04T07:28:09.642Z,3.84
2023-04-04T07:30:40.993Z,3.89
2023-04-04T07:33:11.018Z,3.92
2023-04-04T07:35:39.475Z,3.93
2023-04-04T07:38:08.133Z,3.98
2023-04-04T07:40:36.723Z,3.97
2023-04-04T07:43:05.081Z,3.99
2023-04-04T07:45:33.449Z,4.07
2023-04-04T07:48:02.128Z,4.11
2023-04-04T07:50:32.045Z,4.11
2023-04-04T07:53:00.495Z,4.18
2023-04-04T07:55:29.014Z,4.31
2023-04-04T07:57:58.496Z,4.42
2023-04-04T08:00:27.030Z,4.44
2023-04-04T08:02:56.308Z,4.54
2023-04-04T08:05:24.878Z,4.65
2023-04-04T08:07:54.719Z,4.73
2023-04-04T08:10:23.100Z,4.80
2023-04-04T08:12:51.473Z,4.78
2023-04-04T08:15:19.951Z,4.70
2023-04-04T08:17:48.564Z,4.63
2023-04-04T08:20:17.141Z,4.59
2023-04-04T08:22:45.789Z,4.55
2023-04-04T08:25:20.022Z,4.53
2023-04-04T08:27:48.510Z,4.55
2023-04-04T08:30:16.902Z,4.66
2023-04-04T08:32:46.150Z,4.79
2023-04-04T08:35:14.648Z,4.98
2023-04-04T08:37:46.248Z,5.10
2023-04-04T08:40:15.395Z,5.13
2023-04-04T08:42:46.072Z,5.10
2023-04-04T08:45:19.117Z,5.08
2023-04-04T08:47:51.317Z,5.08
2023-04-04T08:50:21.580Z,5.13
2023-04-04T08:52:50.897Z,5.09
2023-04-04T08:55:20.138Z,5.17
2023-04-04T08:57:50.420Z,5.18
2023-04-04T09:00:21.509Z,5.09
2023-04-04T09:02:58.159Z,5.03
2023-04-04T09:05:27.341Z,5.02
2023-04-04T09:07:57.191Z,4.97
2023-04-04T09:10:26.127Z,4.96
2023-04-04T09:13:08.662Z,4.98
2023-04-04T09:15:47.995Z,5.04
2023-04-04T09:18:18.210Z,5.04
2023-04-04T09:20:47.684Z,5.06
2023-04-04T09:23:18.535Z,5.08
2023-04-04T09:26:00.411Z,5.05
2023-04-04T09:28:36.794Z,5.08
2023-04-04T09:31:11.204Z,5.11
2023-04-04T09:33:40.037Z,5.23
2023-04-04T09:36:13.150Z,5.40
2023-04-04T09:38:44.184Z,5.48
2023-04-04T09:41:17.962Z,5.63
2023-04-04T09:43:48.471Z,5.73
2023-04-04T09:46:20.599Z,5.85
2023-04-04T09:48:50.914Z,5.92
2023-04-04T09:51:19.318Z,6.03
2023-04-04T09:53:49.493Z,6.13
2023-04-04T09:56:18.445Z,6.24
2023-04-04T09:59:02.378Z,6.35
2023-04-04T10:01:32.142Z,6.46
2023-04-04T10:04:00.809Z,6.57
2023-04-04T10:06:30.822Z,6.70
2023-04-04T10:08:59.497Z,6.78
2023-04-04T10:11:32.519Z,6.85
2023-04-04T10:14:04.058Z,6.92
2023-04-04T10:16:38.347Z,7.00
2023-04-04T10:19:08.709Z,7.06
2023-04-04T10:21:37.405Z,7.17
2023-04-04T10:24:09.925Z,7.20
2023-04-04T10:26:38.678Z,7.10
2023-04-04T10:29:08.450Z,7.04
2023-04-04T10:31:41.093Z,7.11
2023-04-04T10:34:13.880Z,7.24
2023-04-04T10:36:51.437Z,7.34
2023-04-04T10:39:25.408Z,7.40
2023-04-04T10:41:54.513Z,7.40
2023-04-04T10:44:31.811Z,7.34
2023-04-04T10:47:08.699Z,7.25
2023-04-04T10:49:39.307Z,7.21
2023-04-04T10:52:08.190Z,7.31
2023-04-04T10:54:36.808Z,7.41
2023-04-04T10:57:06.203Z,7.48
2023-04-04T10:59:36.131Z,7.55
2023-04-04T11:02:06.843Z,7.67
2023-04-04T11:04:38.019Z,7.77
2023-04-04T11:07:14.357Z,7.73
2023-04-04T11:09:54.135Z,7.66
2023-04-04T11:12:24.369Z,7.60
2023-04-04T11:15:12.378Z,7.40
2023-04-04T11:18:17.245Z,7.49
2023-04-04T11:20:50.419Z,7.68
2023-04-04T11:23:24.347Z,7.79
2023-04-04T11:25:53.657Z,8.00
2023-04-04T11:28:46.758Z,8.21
2023-04-04T11:31:32.694Z,8.32
2023-04-04T11:34:04.668Z,8.33
2023-04-04T11:36:55.077Z,8.31
2023-04-04T11:39:27.033Z,8.29
2023-04-04T11:41:57.398Z,8.21
2023-04-04T11:44:29.258Z,8.35
2023-04-04T11:47:05.374Z,8.54
2023-04-04T11:49:36.484Z,8.72
2023-04-04T11:52:10.119Z,8.77
2023-04-04T11:54:39.798Z,8.82
2023-04-04T11:57:08.397Z,8.85
2023-04-04T11:59:41.616Z,8.84
2023-04-04T12:02:14.006Z,8.70
2023-04-04T12:04:44.576Z,8.47
2023-04-04T12:07:15.883Z,8.31
2023-04-04T12:09:45.382Z,8.16
2023-04-04T12:12:17.235Z,7.86
2023-04-04T12:14:45.959Z,7.65
2023-04-04T12:17:17.945Z,7.68
2023-04-04T12:19:46.943Z,7.74
2023-04-04T12:22:16.335Z,7.79
2023-04-04T12:24:44.726Z,7.86
2023-04-04T12:27:14.522Z,8.02
2023-04-04T12:29:45.615Z,8.19
2023-04-04T12:32:16.668Z,8.37
2023-04-04T12:34:50.023Z,8.57
2023-04-04T12:37:23.636Z,8.80
2023-04-04T12:39:52.333Z,8.92
2023-04-04T12:42:24.393Z,8.82
2023-04-04T12:44:55.264Z,8.73
2023-04-04T12:47:26.373Z,8.85
2023-04-04T12:49:56.026Z,9.05
2023-04-04T12:52:29.635Z,9.12
2023-04-04T12:55:08.243Z,9.17
2023-04-04T12:57:46.372Z,9.11
2023-04-04T13:00:16.666Z,8.95
2023-04-04T13:02:49.446Z,8.97
2023-04-04T13:05:20.160Z,9.16
2023-04-04T13:07:49.163Z,9.30
2023-04-04T13:10:18.739Z,9.34
2023-04-04T13:12:58.350Z,9.36
2023-04-04T13:15:49.255Z,9.40
2023-04-04T13:18:21.760Z,9.42
2023-04-04T13:20:50.477Z,9.56
2023-04-04T13:23:19.667Z,9.75
2023-04-04T13:25:48.258Z,9.87
2023-04-04T13:28:17.053Z,9.93
2023-04-04T13:30:48.913Z,9.88
2023-04-04T13:33:19.803Z,9.92
2023-04-04T13:35:48.246Z,10.05
2023-04-04T13:38:17.303Z,10.12
2023-04-04T13:40:45.903Z,10.10
2023-04-04T13:43:17.157Z,10.12
2023-04-04T13:45:46.584Z,10.21
2023-04-04T13:48:17.548Z,10.35
2023-04-04T13:50:51.452Z,10.42
2023-04-04T13:53:20.017Z,10.52
2023-04-04T13:56:13.804Z,10.58
2023-04-04T13:58:40.128Z,10.63
2023-04-04T14:01:08.960Z,10.67
2023-04-04T14:03:37.480Z,10.68
2023-04-04T14:06:10.827Z,10.70
2023-04-04T14:08:40.209Z,10.49
2023-04-04T14:11:09.375Z,10.20
2023-04-04T14:13:38.005Z,9.92
2023-04-04T14:16:09.325Z,9.71
2023-04-04T14:18:37.772Z,9.79
2023-04-04T14:21:07.637Z,9.99
2023-04-04T14:23:36.395Z,10.14
2023-04-04T14:26:05.243Z,10.23
2023-04-04T14:28:33.711Z,10.28
2023-04-04T14:31:02.260Z,10.36
2023-04-04T14:33:30.750Z,10.30
2023-04-04T14:35:59.155Z,10.08
2023-04-04T14:38:29.108Z,9.86
2023-04-04T14:40:57.579Z,9.64
2023-04-04T14:43:26.079Z,9.64
2023-04-04T14:45:54.703Z,9.73
2023-04-04T14:48:23.128Z,9.93
2023-04-04T14:50:54.625Z,10.11
2023-04-04T14:53:23.086Z,10.20
2023-04-04T14:55:53.368Z,10.33
2023-04-04T14:58:21.793Z,10.29
2023-04-04T15:00:50.412Z,10.08
2023-04-04T15:03:18.995Z,9.84
2023-04-04T15:05:47.382Z,9.63
2023-04-04T15:08:16.673Z,9.39
2023-04-04T15:10:45.355Z,9.22
2023-04-04T15:13:16.274Z,9.19
2023-04-04T15:15:45.291Z,9.09
2023-04-04T15:18:13.679Z,9.04
2023-04-04T15:20:42.740Z,9.13
2023-04-04T15:23:11.638Z,9.25
2023-04-04T15:25:40.223Z,9.35
2023-04-04T15:28:08.789Z,9.56
2023-04-04T15:30:45.659Z,9.69
2023-04-04T15:33:14.130Z,9.72
2023-04-04T15:35:42.537Z,9.61
2023-04-04T15:38:10.947Z,9.46
2023-04-04T15:40:39.666Z,9.34
2023-04-04T15:43:08.259Z,9.21
2023-04-04T15:45:36.647Z,9.04
2023-04-04T15:48:07.031Z,8.83
2023-04-04T15:50:35.442Z,8.70
2023-04-04T15:53:03.837Z,8.60
2023-04-04T15:55:32.489Z,8.48
2023-04-04T15:58:01.046Z,8.35
2023-04-04T16:00:29.555Z,8.29
2023-04-04T16:02:58.911Z,8.21
2023-04-04T16:05:28.791Z,8.13
2023-04-04T16:07:58.160Z,8.05
2023-04-04T16:10:26.646Z,7.99
2023-04-04T16:12:55.254Z,7.91
2023-04-04T16:15:23.840Z,7.94
2023-04-04T16:17:53.804Z,7.96
2023-04-04T16:20:22.694Z,8.00
2023-04-04T16:22:53.995Z,8.01
2023-04-04T16:25:23.193Z,8.02
2023-04-04T16:27:51.571Z,8.05
2023-04-04T16:30:20.116Z,8.13
2023-04-04T16:32:49.292Z,8.18
2023-04-04T16:35:20.412Z,8.18
2023-04-04T16:37:48.955Z,8.20
2023-04-04T16:40:20.014Z,8.22
2023-04-04T16:42:48.430Z,8.25
2023-04-04T16:45:20.058Z,8.26
2023-04-04T16:47:48.540Z,8.23
2023-04-04T16:50:20.097Z,8.20
2023-04-04T16:52:48.526Z,8.14
2023-04-04T16:55:20.973Z,8.08
2023-04-04T16:57:49.297Z,8.02
2023-04-04T17:00:19.733Z,7.95
2023-04-04T17:02:48.323Z,7.89
2023-04-04T17:05:18.078Z,7.81
2023-04-04T17:07:46.539Z,7.68
2023-04-04T17:10:19.448Z,7.57
2023-04-04T17:12:47.831Z,7.48
2023-04-04T17:15:19.505Z,7.43
2023-04-04T17:17:48.034Z,7.33
2023-04-04T17:20:19.123Z,7.24
2023-04-04T17:22:49.758Z,7.17
2023-04-04T17:25:21.036Z,7.04
2023-04-04T17:27:49.473Z,6.95
2023-04-04T17:30:19.863Z,6.89
2023-04-04T17:32:48.869Z,6.80
2023-04-04T17:35:18.902Z,6.72
2023-04-04T17:37:47.353Z,6.63
2023-04-04T17:40:16.106Z,6.54
2023-04-04T17:42:46.081Z,6.50
2023-04-04T17:45:15.268Z,6.45
2023-04-04T17:47:46.372Z,6.38
2023-04-04T17:50:15.012Z,6.31
2023-04-04T17:52:43.939Z,6.23
2023-04-04T17:55:12.862Z,6.19
2023-04-04T17:57:41.597Z,6.16
2023-04-04T18:00:13.464Z,6.08
2023-04-04T18:02:42.292Z,6.04
2023-04-04T18:05:16.972Z,6.00
2023-04-04T18:07:47.203Z,5.93
2023-04-04T18:10:17.578Z,5.87
2023-04-04T18:12:46.660Z,5.87
2023-04-04T18:15:18.035Z,5.84
2023-04-04T18:17:47.097Z,5.80
2023-04-04T18:20:27.820Z,5.79
2023-04-04T18:23:04.325Z,5.74
2023-04-04T18:25:33.961Z,5.69
2023-04-04T18:28:03.737Z,5.65
2023-04-04T18:30:37.468Z,5.64
2023-04-04T18:33:09.077Z,5.60
2023-04-04T18:35:37.827Z,5.55
2023-04-04T18:38:07.251Z,5.53
2023-04-04T18:40:35.730Z,5.51
2023-04-04T18:43:04.474Z,5.48
2023-04-04T18:45:37.614Z,5.43
2023-04-04T18:48:11.855Z,5.35
2023-04-04T18:50:40.911Z,5.36
2023-04-04T18:53:09.569Z,5.36
2023-04-04T18:55:38.227Z,5.37
2023-04-04T18:58:06.873Z,5.26
2023-04-04T19:00:35.673Z,5.16
2023-04-04T19:03:04.257Z,5.08
2023-04-04T19:05:37.467Z,5.00
2023-04-04T19:08:09.480Z,4.87
2023-04-04T19:10:38.916Z,4.71
2023-04-04T19:13:07.701Z,4.50
2023-04-04T19:15:36.115Z,4.44
2023-04-04T19:18:05.295Z,4.44
2023-04-04T19:20:35.512Z,4.44
2023-04-04T19:23:04.015Z,4.32
2023-04-04T19:25:32.423Z,4.16
2023-04-04T19:28:10.911Z,4.10
2023-04-04T19:30:44.999Z,4.05
2023-04-04T19:33:14.865Z,3.93
2023-04-04T19:35:57.133Z,3.91
2023-04-04T19:38:28.296Z,3.87
2023-04-04T19:40:59.233Z,3.74
2023-04-04T19:43:28.936Z,3.77
2023-04-04T19:45:59.220Z,3.88
2023-04-04T19:48:52.826Z,3.91
2023-04-04T19:51:52.930Z,3.92
2023-04-04T19:54:27.191Z,3.88
2023-04-04T19:57:01.139Z,3.70
2023-04-04T19:59:59.530Z,3.45
2023-04-04T20:02:50.455Z,3.26
2023-04-04T20:05:57.524Z,3.14
2023-04-04T20:08:38.167Z,3.15
2023-04-04T20:11:07.810Z,3.22
2023-04-04T20:13:37.736Z,3.25
2023-04-04T20:16:08.533Z,3.29
2023-04-04T20:18:38.502Z,3.17
2023-04-04T20:21:20.861Z,3.02
2023-04-04T20:23:53.459Z,2.84
2023-04-04T20:26:46.828Z,2.72
2023-04-04T20:29:17.290Z,2.65
2023-04-04T20:31:47.971Z,2.72
2023-04-04T20:34:38.729Z,2.81
2023-04-04T20:37:10.149Z,2.89
2023-04-04T20:39:47.826Z,2.95
2023-04-04T20:42:33.915Z,3.00
2023-04-04T20:45:29.934Z,3.00
2023-04-04T20:48:00.601Z,3.00
2023-04-04T20:50:47.295Z,3.00
2023-04-04T20:53:21.217Z,2.92
2023-04-04T20:55:51.402Z,2.91
2023-04-04T20:58:30.458Z,2.94
2023-04-04T21:01:00.675Z,2.94
2023-04-04T21:03:35.517Z,2.90
2023-04-04T21:06:10.865Z,2.90
2023-04-04T21:08:42.982Z,2.88
2023-04-04T21:11:13.931Z,2.84
2023-04-04T21:13:43.499Z,2.81
2023-04-04T21:16:13.644Z,2.80
2023-04-04T21:18:42.551Z,2.72
2023-04-04T21:21:13.020Z,2.56
2023-04-04T21:23:46.112Z,2.44
2023-04-04T21:26:34.816Z,2.52
2023-04-04T21:29:06.103Z,2.60
2023-04-04T21:31:40.267Z,2.68
2023-04-04T21:34:12.069Z,2.74
2023-04-04T21:36:41.505Z,2.78
2023-04-04T21:39:13.076Z,2.73
2023-04-04T21:41:44.799Z,2.70
2023-04-04T21:44:13.210Z,2.63
2023-04-04T21:46:42.450Z,2.58
2023-04-04T21:49:11.470Z,2.56
2023-04-04T21:51:40.116Z,2.51
2023-04-04T21:54:08.754Z,2.49
2023-04-04T21:56:38.535Z,2.47
2023-04-04T21:59:10.078Z,2.41
2023-04-04T22:01:39.468Z,2.32
2023-04-04T22:04:07.921Z,2.32
2023-04-04T22:06:36.461Z,2.28
2023-04-04T22:09:06.728Z,2.27
2023-04-04T22:11:38.704Z,2.27
2023-04-04T22:14:08.532Z,2.22
2023-04-04T22:16:39.731Z,2.11
2023-04-04T22:19:10.989Z,1.88
2023-04-04T22:21:48.055Z,1.74
2023-04-04T22:24:18.519Z,1.61
2023-04-04T22:26:50.458Z,1.50
2023-04-04T22:29:21.973Z,1.40
2023-04-04T22:31:50.700Z,1.35
2023-04-04T22:34:21.580Z,1.41
2023-04-04T22:36:50.015Z,1.48
2023-04-04T22:39:20.893Z,1.46
2023-04-04T22:41:52.350Z,1.46
2023-04-04T22:44:22.909Z,1.47
2023-04-04T22:46:52.162Z,1.46
2023-04-04T22:49:23.856Z,1.40
2023-04-04T22:51:55.471Z,1.38
2023-04-04T22:54:25.103Z,1.52
2023-04-04T22:56:55.025Z,1.51
2023-04-04T22:59:25.119Z,1.45
2023-04-04T23:01:53.779Z,1.45
2023-04-04T23:04:23.833Z,1.52
2023-04-04T23:06:53.350Z,1.64
2023-04-04T23:09:23.468Z,1.75
2023-04-04T23:11:51.875Z,1.79
2023-04-04T23:14:22.865Z,1.73
2023-04-04T23:16:56.905Z,1.65
2023-04-04T23:19:25.392Z,1.62
2023-04-04T23:21:53.876Z,1.61
2023-04-04T23:24:23.244Z,1.60
2023-04-04T23:26:51.737Z,1.53
2023-04-04T23:29:22.607Z,1.48
2023-04-04T23:31:52.310Z,1.46
2023-04-04T23:34:23.017Z,1.44
2023-04-04T23:36:51.649Z,1.44
2023-04-04T23:39:21.376Z,1.37
2023-04-04T23:41:49.751Z,1.25
2023-04-04T23:44:18.536Z,1.24
2023-04-04T23:46:47.476Z,1.17
2023-04-04T23:49:17.898Z,1.01
2023-04-04T23:51:46.329Z,1.01
2023-04-04T23:54:15.502Z,0.99
2023-04-04T23:56:45.160Z,0.90
2023-04-04T23:59:13.489Z,0.89
